sensor_id;sensor_type;location;lat;lon;timestamp;pressure;altitude;pressure_sealevel;temperature;humidity
64835;BME280;51293;59.296;18.006;2022-12-10T00:01:44;100473.03;;;-5.90;100.00
64835;BME280;51293;59.296;18.006;2022-12-10T00:04:11;100470.16;;;-5.87;100.00
64835;BME280;51293;59.296;18.006;2022-12-10T00:06:37;100479.31;;;-5.81;100.00
64835;BME280;51293;59.296;18.006;2022-12-10T00:09:06;100465.06;;;-5.79;100.00
64835;BME280;51293;59.296;18.006;2022-12-10T00:11:32;100465.34;;;-5.72;100.00
64835;BME280;51293;59.296;18.006;2022-12-10T00:13:58;100467.00;;;-5.71;100.00
64835;BME280;51293;59.296;18.006;2022-12-10T00:16:26;100475.06;;;-5.73;100.00
64835;BME280;51293;59.296;18.006;2022-12-10T00:18:52;100472.88;;;-5.68;100.00
64835;BME280;51293;59.296;18.006;2022-12-10T00:21:21;100476.22;;;-5.66;100.00
64835;BME280;51293;59.296;18.006;2022-12-10T00:23:47;100477.03;;;-5.65;100.00
64835;BME280;51293;59.296;18.006;2022-12-10T00:26:18;100471.91;;;-5.67;100.00
64835;BME280;51293;59.296;18.006;2022-12-10T00:28:45;100471.63;;;-5.63;100.00
64835;BME280;51293;59.296;18.006;2022-12-10T00:31:17;100473.19;;;-5.61;100.00
64835;BME280;51293;59.296;18.006;2022-12-10T00:33:44;100476.66;;;-5.60;100.00
64835;BME280;51293;59.296;18.006;2022-12-10T00:36:15;100470.56;;;-5.61;100.00
64835;BME280;51293;59.296;18.006;2022-12-10T00:38:41;100480.81;;;-5.58;100.00
64835;BME280;51293;59.296;18.006;2022-12-10T00:41:07;100482.19;;;-5.63;100.00
64835;BME280;51293;59.296;18.006;2022-12-10T00:43:33;100483.28;;;-5.66;100.00
64835;BME280;51293;59.296;18.006;2022-12-10T00:45:59;100480.38;;;-5.63;100.00
64835;BME280;51293;59.296;18.006;2022-12-10T00:48:25;100479.81;;;-5.67;100.00
64835;BME280;51293;59.296;18.006;2022-12-10T00:51:02;100473.31;;;-5.62;100.00
64835;BME280;51293;59.296;18.006;2022-12-10T00:53:29;100476.06;;;-5.64;100.00
64835;BME280;51293;59.296;18.006;2022-12-10T00:55:54;100471.09;;;-5.57;100.00
64835;BME280;51293;59.296;18.006;2022-12-10T00:58:20;100472.47;;;-5.63;100.00
64835;BME280;51293;59.296;18.006;2022-12-10T01:00:47;100473.31;;;-5.62;100.00
64835;BME280;51293;59.296;18.006;2022-12-10T01:03:13;100475.97;;;-5.62;100.00
64835;BME280;51293;59.296;18.006;2022-12-10T01:05:39;100480.13;;;-5.60;100.00
64835;BME280;51293;59.296;18.006;2022-12-10T01:08:04;100474.84;;;-5.60;100.00
64835;BME280;51293;59.296;18.006;2022-12-10T01:10:30;100479.72;;;-5.55;100.00
64835;BME280;51293;59.296;18.006;2022-12-10T01:12:55;100481.97;;;-5.51;100.00
64835;BME280;51293;59.296;18.006;2022-12-10T01:15:20;100474.19;;;-5.52;100.00
64835;BME280;51293;59.296;18.006;2022-12-10T01:17:46;100470.59;;;-5.51;100.00
64835;BME280;51293;59.296;18.006;2022-12-10T01:20:12;100475.84;;;-5.51;100.00
64835;BME280;51293;59.296;18.006;2022-12-10T01:22:37;100472.25;;;-5.50;100.00
64835;BME280;51293;59.296;18.006;2022-12-10T01:25:03;100476.56;;;-5.49;100.00
64835;BME280;51293;59.296;18.006;2022-12-10T01:27:29;100467.53;;;-5.47;100.00
64835;BME280;51293;59.296;18.006;2022-12-10T01:29:54;100470.88;;;-5.45;100.00
64835;BME280;51293;59.296;18.006;2022-12-10T01:32:19;100470.47;;;-5.40;100.00
64835;BME280;51293;59.296;18.006;2022-12-10T01:34:45;100473.09;;;-5.40;100.00
64835;BME280;51293;59.296;18.006;2022-12-10T01:37:10;100470.22;;;-5.37;100.00
64835;BME280;51293;59.296;18.006;2022-12-10T01:39:36;100470.63;;;-5.32;100.00
64835;BME280;51293;59.296;18.006;2022-12-10T01:42:02;100464.28;;;-5.29;100.00
64835;BME280;51293;59.296;18.006;2022-12-10T01:46:55;100469.66;;;-5.31;100.00
64835;BME280;51293;59.296;18.006;2022-12-10T01:49:23;100465.34;;;-5.32;100.00
64835;BME280;51293;59.296;18.006;2022-12-10T01:51:52;100476.75;;;-5.31;100.00
64835;BME280;51293;59.296;18.006;2022-12-10T01:54:31;100474.69;;;-5.28;100.00
64835;BME280;51293;59.296;18.006;2022-12-10T01:57:02;100476.34;;;-5.27;100.00
64835;BME280;51293;59.296;18.006;2022-12-10T01:59:28;100481.78;;;-5.28;100.00
64835;BME280;51293;59.296;18.006;2022-12-10T02:05:04;100480.97;;;-5.19;100.00
64835;BME280;51293;59.296;18.006;2022-12-10T02:08:14;100481.09;;;-5.21;100.00
64835;BME280;51293;59.296;18.006;2022-12-10T02:10:55;100485.41;;;-5.20;100.00
64835;BME280;51293;59.296;18.006;2022-12-10T02:13:30;100485.72;;;-5.03;100.00
64835;BME280;51293;59.296;18.006;2022-12-10T02:16:04;100486.41;;;-5.11;100.00
64835;BME280;51293;59.296;18.006;2022-12-10T02:18:38;100491.81;;;-5.13;100.00
64835;BME280;51293;59.296;18.006;2022-12-10T02:21:22;100490.72;;;-5.10;100.00
64835;BME280;51293;59.296;18.006;2022-12-10T02:23:56;100501.00;;;-5.07;100.00
64835;BME280;51293;59.296;18.006;2022-12-10T02:29:17;100493.75;;;-5.05;100.00
64835;BME280;51293;59.296;18.006;2022-12-10T02:31:48;100492.22;;;-5.07;100.00
64835;BME280;51293;59.296;18.006;2022-12-10T02:34:17;100495.31;;;-5.02;100.00
64835;BME280;51293;59.296;18.006;2022-12-10T02:36:46;100495.31;;;-5.02;100.00
64835;BME280;51293;59.296;18.006;2022-12-10T02:39:15;100493.75;;;-5.05;100.00
64835;BME280;51293;59.296;18.006;2022-12-10T02:41:52;100499.34;;;-4.98;100.00
64835;BME280;51293;59.296;18.006;2022-12-10T02:44:19;100497.81;;;-5.01;100.00
64835;BME280;51293;59.296;18.006;2022-12-10T02:46:47;100494.34;;;-5.01;100.00
64835;BME280;51293;59.296;18.006;2022-12-10T02:49:15;100499.47;;;-5.00;100.00
64835;BME280;51293;59.296;18.006;2022-12-10T02:51:41;100491.84;;;-5.03;100.00
64835;BME280;51293;59.296;18.006;2022-12-10T02:54:40;100500.59;;;-5.02;100.00
64835;BME280;51293;59.296;18.006;2022-12-10T03:00:14;100496.16;;;-5.02;100.00
64835;BME280;51293;59.296;18.006;2022-12-10T03:05:19;100492.69;;;-5.02;100.00
64835;BME280;51293;59.296;18.006;2022-12-10T03:07:53;100492.38;;;-4.99;100.00
64835;BME280;51293;59.296;18.006;2022-12-10T03:10:55;100495.03;;;-4.99;100.00
64835;BME280;51293;59.296;18.006;2022-12-10T03:13:29;100495.88;;;-4.99;100.00
64835;BME280;51293;59.296;18.006;2022-12-10T03:15:57;100492.69;;;-4.93;100.00
64835;BME280;51293;59.296;18.006;2022-12-10T03:18:25;100493.53;;;-4.92;100.00
64835;BME280;51293;59.296;18.006;2022-12-10T03:20:53;100490.47;;;-4.88;100.00
64835;BME280;51293;59.296;18.006;2022-12-10T03:23:20;100502.72;;;-4.87;100.00
64835;BME280;51293;59.296;18.006;2022-12-10T03:25:48;100499.09;;;-4.86;100.00
64835;BME280;51293;59.296;18.006;2022-12-10T03:28:14;100502.44;;;-4.84;100.00
64835;BME280;51293;59.296;18.006;2022-12-10T03:30:41;100507.19;;;-4.77;100.00
64835;BME280;51293;59.296;18.006;2022-12-10T03:33:08;100506.75;;;-4.73;100.00
64835;BME280;51293;59.296;18.006;2022-12-10T03:35:34;100513.00;;;-4.74;100.00
64835;BME280;51293;59.296;18.006;2022-12-10T03:38:00;100503.41;;;-4.75;100.00
64835;BME280;51293;59.296;18.006;2022-12-10T03:40:26;100512.31;;;-4.76;99.78
64835;BME280;51293;59.296;18.006;2022-12-10T03:42:51;100509.81;;;-4.77;99.45
64835;BME280;51293;59.296;18.006;2022-12-10T03:45:17;100512.59;;;-4.79;99.88
64835;BME280;51293;59.296;18.006;2022-12-10T03:47:42;100506.06;;;-4.75;99.63
64835;BME280;51293;59.296;18.006;2022-12-10T03:50:09;100506.19;;;-4.76;99.60
64835;BME280;51293;59.296;18.006;2022-12-10T03:52:35;100504.94;;;-4.72;99.77
64835;BME280;51293;59.296;18.006;2022-12-10T03:55:01;100507.72;;;-4.74;99.64
64835;BME280;51293;59.296;18.006;2022-12-10T03:57:28;100506.06;;;-4.75;99.97
64835;BME280;51293;59.296;18.006;2022-12-10T03:59:53;100503.56;;;-4.76;100.00
64835;BME280;51293;59.296;18.006;2022-12-10T04:02:19;100506.06;;;-4.75;99.59
64835;BME280;51293;59.296;18.006;2022-12-10T04:04:44;100512.47;;;-4.77;99.07
64835;BME280;51293;59.296;18.006;2022-12-10T04:07:10;100509.81;;;-4.77;98.70
64835;BME280;51293;59.296;18.006;2022-12-10T04:09:35;100515.94;;;-4.77;99.04
64835;BME280;51293;59.296;18.006;2022-12-10T04:12:00;100510.50;;;-4.75;98.94
64835;BME280;51293;59.296;18.006;2022-12-10T04:14:26;100508.84;;;-4.76;99.13
64835;BME280;51293;59.296;18.006;2022-12-10T04:17:11;100514.97;;;-4.76;99.27
64835;BME280;51293;59.296;18.006;2022-12-10T04:19:37;100513.44;;;-4.78;99.02
64835;BME280;51293;59.296;18.006;2022-12-10T04:22:03;100507.19;;;-4.77;99.32
64835;BME280;51293;59.296;18.006;2022-12-10T04:24:48;100501.59;;;-4.74;99.38
64835;BME280;51293;59.296;18.006;2022-12-10T04:27:51;100509.97;;;-4.69;99.49
64835;BME280;51293;59.296;18.006;2022-12-10T04:30:17;100510.94;;;-4.70;99.09
64835;BME280;51293;59.296;18.006;2022-12-10T04:32:43;100504.09;;;-4.73;99.28
64835;BME280;51293;59.296;18.006;2022-12-10T04:35:08;100508.69;;;-4.75;99.42
64835;BME280;51293;59.296;18.006;2022-12-10T04:37:34;100507.31;;;-4.69;99.24
64835;BME280;51293;59.296;18.006;2022-12-10T04:39:59;100502.72;;;-4.67;99.06
64835;BME280;51293;59.296;18.006;2022-12-10T04:42:25;100510.94;;;-4.70;98.91
64835;BME280;51293;59.296;18.006;2022-12-10T04:44:50;100506.34;;;-4.68;99.54
64835;BME280;51293;59.296;18.006;2022-12-10T04:47:16;100503.28;;;-4.64;99.09
64835;BME280;51293;59.296;18.006;2022-12-10T04:49:41;100507.75;;;-4.55;98.92
64835;BME280;51293;59.296;18.006;2022-12-10T04:52:10;100505.66;;;-4.61;99.32
64835;BME280;51293;59.296;18.006;2022-12-10T04:54:37;100510.13;;;-4.61;99.50
64835;BME280;51293;59.296;18.006;2022-12-10T04:57:02;100509.28;;;-4.62;99.90
64835;BME280;51293;59.296;18.006;2022-12-10T04:59:27;100509.41;;;-4.54;100.00
64835;BME280;51293;59.296;18.006;2022-12-10T05:01:53;100510.81;;;-4.59;100.00
64835;BME280;51293;59.296;18.006;2022-12-10T05:04:18;100514.72;;;-4.54;100.00
64835;BME280;51293;59.296;18.006;2022-12-10T05:06:45;100512.31;;;-4.57;100.00
64835;BME280;51293;59.296;18.006;2022-12-10T05:09:12;100510.25;;;-4.53;100.00
64835;BME280;51293;59.296;18.006;2022-12-10T05:11:38;100515.81;;;-4.56;100.00
64835;BME280;51293;59.296;18.006;2022-12-10T05:14:04;100507.31;;;-4.60;100.00
64835;BME280;51293;59.296;18.006;2022-12-10T05:16:31;100516.22;;;-4.61;100.00
64835;BME280;51293;59.296;18.006;2022-12-10T05:18:57;100519.13;;;-4.64;100.00
64835;BME280;51293;59.296;18.006;2022-12-10T05:21:24;100516.22;;;-4.61;100.00
64835;BME280;51293;59.296;18.006;2022-12-10T05:24:10;100511.63;;;-4.59;100.00
64835;BME280;51293;59.296;18.006;2022-12-10T05:26:35;100513.59;;;-4.61;100.00
64835;BME280;51293;59.296;18.006;2022-12-10T05:29:01;100513.00;;;-4.64;100.00
64835;BME280;51293;59.296;18.006;2022-12-10T05:31:28;100517.91;;;-4.60;100.00
64835;BME280;51293;59.296;18.006;2022-12-10T05:33:55;100525.00;;;-4.50;100.00
64835;BME280;51293;59.296;18.006;2022-12-10T05:36:22;100520.00;;;-4.63;100.00
64835;BME280;51293;59.296;18.006;2022-12-10T05:38:48;100518.44;;;-4.66;100.00
64835;BME280;51293;59.296;18.006;2022-12-10T05:41:17;100515.81;;;-4.66;100.00
64835;BME280;51293;59.296;18.006;2022-12-10T05:43:43;100527.34;;;-4.67;100.00
64835;BME280;51293;59.296;18.006;2022-12-10T05:46:13;100522.22;;;-4.68;100.00
64835;BME280;51293;59.296;18.006;2022-12-10T05:48:39;100533.91;;;-4.71;100.00
64835;BME280;51293;59.296;18.006;2022-12-10T05:51:10;100526.91;;;-4.72;100.00
64835;BME280;51293;59.296;18.006;2022-12-10T05:53:36;100528.72;;;-4.72;100.00
64835;BME280;51293;59.296;18.006;2022-12-10T05:56:05;100526.38;;;-4.75;100.00
64835;BME280;51293;59.296;18.006;2022-12-10T05:58:31;100527.47;;;-4.78;100.00
64835;BME280;51293;59.296;18.006;2022-12-10T06:00:57;100531.38;;;-4.72;100.00
64835;BME280;51293;59.296;18.006;2022-12-10T06:03:24;100536.78;;;-4.74;100.00
64835;BME280;51293;59.296;18.006;2022-12-10T06:05:50;100528.88;;;-4.74;100.00
64835;BME280;51293;59.296;18.006;2022-12-10T06:08:15;100532.63;;;-4.76;100.00
64835;BME280;51293;59.296;18.006;2022-12-10T06:10:41;100533.31;;;-4.74;100.00
64835;BME280;51293;59.296;18.006;2022-12-10T06:13:06;100530.66;;;-4.74;100.00
64835;BME280;51293;59.296;18.006;2022-12-10T06:15:32;100534.56;;;-4.78;100.00
64835;BME280;51293;59.296;18.006;2022-12-10T06:17:57;100539.72;;;-4.77;100.00
64835;BME280;51293;59.296;18.006;2022-12-10T06:20:24;100537.91;;;-4.76;100.00
64835;BME280;51293;59.296;18.006;2022-12-10T06:22:50;100538.59;;;-4.74;100.00
64835;BME280;51293;59.296;18.006;2022-12-10T06:25:15;100538.19;;;-4.70;100.00
64835;BME280;51293;59.296;18.006;2022-12-10T06:27:41;100539.34;;;-4.63;100.00
64835;BME280;51293;59.296;18.006;2022-12-10T06:30:07;100535.00;;;-4.64;100.00
64835;BME280;51293;59.296;18.006;2022-12-10T06:32:32;100538.75;;;-4.66;100.00
64835;BME280;51293;59.296;18.006;2022-12-10T06:34:58;100531.50;;;-4.64;100.00
64835;BME280;51293;59.296;18.006;2022-12-10T06:37:23;100529.31;;;-4.59;100.00
64835;BME280;51293;59.296;18.006;2022-12-10T06:39:52;100534.59;;;-4.69;100.00
64835;BME280;51293;59.296;18.006;2022-12-10T06:42:19;100535.84;;;-4.63;100.00
64835;BME280;51293;59.296;18.006;2022-12-10T06:44:44;100533.59;;;-4.68;100.00
64835;BME280;51293;59.296;18.006;2022-12-10T06:47:10;100535.84;;;-4.63;100.00
64835;BME280;51293;59.296;18.006;2022-12-10T06:49:36;100532.63;;;-4.67;100.00
64835;BME280;51293;59.296;18.006;2022-12-10T06:52:02;100538.34;;;-4.71;100.00
64835;BME280;51293;59.296;18.006;2022-12-10T06:54:28;100539.56;;;-4.75;100.00
64835;BME280;51293;59.296;18.006;2022-12-10T06:56:53;100541.97;;;-4.63;100.00
64835;BME280;51293;59.296;18.006;2022-12-10T06:59:18;100544.31;;;-4.69;100.00
64835;BME280;51293;59.296;18.006;2022-12-10T07:01:45;100547.09;;;-4.71;100.00
64835;BME280;51293;59.296;18.006;2022-12-10T07:04:11;100553.63;;;-4.75;100.00
64835;BME280;51293;59.296;18.006;2022-12-10T07:06:36;100550.59;;;-4.70;100.00
64835;BME280;51293;59.296;18.006;2022-12-10T07:09:02;100541.69;;;-4.69;100.00
64835;BME280;51293;59.296;18.006;2022-12-10T07:11:27;100545.72;;;-4.65;100.00
64835;BME280;51293;59.296;18.006;2022-12-10T07:13:53;100554.19;;;-4.71;100.00
64835;BME280;51293;59.296;18.006;2022-12-10T07:16:26;100555.16;;;-4.72;100.00
64835;BME280;51293;59.296;18.006;2022-12-10T07:18:53;100564.50;;;-4.68;100.00
64835;BME280;51293;59.296;18.006;2022-12-10T07:21:28;100554.91;;;-4.69;100.00
64835;BME280;51293;59.296;18.006;2022-12-10T07:23:55;100558.38;;;-4.69;100.00
64835;BME280;51293;59.296;18.006;2022-12-10T07:26:24;100568.66;;;-4.66;100.00
64835;BME280;51293;59.296;18.006;2022-12-10T07:28:49;100560.59;;;-4.64;100.00
64835;BME280;51293;59.296;18.006;2022-12-10T07:31:15;100561.16;;;-4.61;100.00
64835;BME280;51293;59.296;18.006;2022-12-10T07:33:40;100567.28;;;-4.60;100.00
64835;BME280;51293;59.296;18.006;2022-12-10T07:36:07;100570.91;;;-4.61;100.00
64835;BME280;51293;59.296;18.006;2022-12-10T07:38:33;100565.03;;;-4.65;100.00
64835;BME280;51293;59.296;18.006;2022-12-10T07:41:06;100568.13;;;-4.60;100.00
64835;BME280;51293;59.296;18.006;2022-12-10T07:43:35;100572.84;;;-4.63;100.00
64835;BME280;51293;59.296;18.006;2022-12-10T07:46:11;100575.34;;;-4.62;100.00
64835;BME280;51293;59.296;18.006;2022-12-10T07:48:39;100568.94;;;-4.69;100.00
64835;BME280;51293;59.296;18.006;2022-12-10T07:51:04;100581.72;;;-4.64;100.00
64835;BME280;51293;59.296;18.006;2022-12-10T07:53:30;100586.59;;;-4.69;100.00
64835;BME280;51293;59.296;18.006;2022-12-10T07:55:56;100585.63;;;-4.78;100.00
64835;BME280;51293;59.296;18.006;2022-12-10T07:58:21;100579.91;;;-4.73;100.00
64835;BME280;51293;59.296;18.006;2022-12-10T08:00:47;100580.75;;;-4.73;100.00
64835;BME280;51293;59.296;18.006;2022-12-10T08:03:13;100577.41;;;-4.75;100.00
64835;BME280;51293;59.296;18.006;2022-12-10T08:05:39;100587.97;;;-4.75;100.00
64835;BME280;51293;59.296;18.006;2022-12-10T08:08:04;100576.44;;;-4.74;100.00
64835;BME280;51293;59.296;18.006;2022-12-10T08:10:33;100575.44;;;-4.73;100.00
64835;BME280;51293;59.296;18.006;2022-12-10T08:12:59;100590.34;;;-4.72;100.00
64835;BME280;51293;59.296;18.006;2022-12-10T08:15:24;100585.50;;;-4.67;100.00
64835;BME280;51293;59.296;18.006;2022-12-10T08:17:49;100576.19;;;-4.61;100.00
64835;BME280;51293;59.296;18.006;2022-12-10T08:20:15;100576.47;;;-4.55;100.00
64835;BME280;51293;59.296;18.006;2022-12-10T08:22:40;100578.56;;;-4.58;100.00
64835;BME280;51293;59.296;18.006;2022-12-10T08:25:06;100577.03;;;-4.61;100.00
64835;BME280;51293;59.296;18.006;2022-12-10T08:27:31;100578.69;;;-4.60;100.00
64835;BME280;51293;59.296;18.006;2022-12-10T08:29:57;100581.19;;;-4.48;100.00
64835;BME280;51293;59.296;18.006;2022-12-10T08:32:22;100589.56;;;-4.53;100.00
64835;BME280;51293;59.296;18.006;2022-12-10T08:34:48;100584.13;;;-4.52;100.00
64835;BME280;51293;59.296;18.006;2022-12-10T08:37:13;100582.59;;;-4.54;100.00
64835;BME280;51293;59.296;18.006;2022-12-10T08:39:39;100588.16;;;-4.47;100.00
64835;BME280;51293;59.296;18.006;2022-12-10T08:42:05;100589.84;;;-4.46;100.00
64835;BME280;51293;59.296;18.006;2022-12-10T08:44:30;100590.25;;;-4.41;100.00
64835;BME280;51293;59.296;18.006;2022-12-10T08:46:56;100586.34;;;-4.47;100.00
64835;BME280;51293;59.296;18.006;2022-12-10T08:49:21;100588.59;;;-4.42;100.00
64835;BME280;51293;59.296;18.006;2022-12-10T08:51:46;100596.53;;;-4.42;100.00
64835;BME280;51293;59.296;18.006;2022-12-10T08:54:12;100590.41;;;-4.43;100.00
64835;BME280;51293;59.296;18.006;2022-12-10T08:56:37;100599.84;;;-4.40;100.00
64835;BME280;51293;59.296;18.006;2022-12-10T08:59:05;100594.88;;;-4.34;100.00
64835;BME280;51293;59.296;18.006;2022-12-10T09:01:30;100595.28;;;-4.38;100.00
64835;BME280;51293;59.296;18.006;2022-12-10T09:03:55;100596.97;;;-4.37;100.00
64835;BME280;51293;59.296;18.006;2022-12-10T09:06:22;100594.03;;;-4.34;100.00
64835;BME280;51293;59.296;18.006;2022-12-10T09:08:49;100605.03;;;-4.29;100.00
64835;BME280;51293;59.296;18.006;2022-12-10T09:11:19;100612.53;;;-4.34;99.58
64835;BME280;51293;59.296;18.006;2022-12-10T09:13:45;100603.38;;;-4.30;99.56
64835;BME280;51293;59.296;18.006;2022-12-10T09:16:10;100602.25;;;-4.28;99.33
64835;BME280;51293;59.296;18.006;2022-12-10T09:18:36;100600.16;;;-4.24;99.23
64835;BME280;51293;59.296;18.006;2022-12-10T09:21:06;100600.97;;;-4.24;99.10
64835;BME280;51293;59.296;18.006;2022-12-10T09:23:32;100596.28;;;-4.20;99.25
64835;BME280;51293;59.296;18.006;2022-12-10T09:25:58;100605.72;;;-4.17;99.04
64835;BME280;51293;59.296;18.006;2022-12-10T09:28:24;100600.59;;;-4.19;99.23
64835;BME280;51293;59.296;18.006;2022-12-10T09:30:59;100602.09;;;-4.16;99.24
64835;BME280;51293;59.296;18.006;2022-12-10T09:33:26;100604.34;;;-4.12;99.05
64835;BME280;51293;59.296;18.006;2022-12-10T09:35:52;100607.00;;;-4.12;98.94
64835;BME280;51293;59.296;18.006;2022-12-10T09:38:18;100605.72;;;-4.08;98.93
64835;BME280;51293;59.296;18.006;2022-12-10T09:41:10;100608.38;;;-4.08;98.52
64835;BME280;51293;59.296;18.006;2022-12-10T09:43:47;100615.22;;;-4.05;98.46
64835;BME280;51293;59.296;18.006;2022-12-10T09:46:30;100617.28;;;-3.70;100.00
64835;BME280;51293;59.296;18.006;2022-12-10T09:51:55;100613.81;;;-3.80;98.54
64835;BME280;51293;59.296;18.006;2022-12-10T09:54:27;100618.38;;;-3.82;98.57
64835;BME280;51293;59.296;18.006;2022-12-10T09:56:55;100612.25;;;-3.83;98.46
64835;BME280;51293;59.296;18.006;2022-12-10T09:59:27;100616.72;;;-3.83;98.27
64835;BME280;51293;59.296;18.006;2022-12-10T10:02:27;100609.63;;;-3.83;98.07
64835;BME280;51293;59.296;18.006;2022-12-10T10:04:56;100614.06;;;-3.83;97.98
64835;BME280;51293;59.296;18.006;2022-12-10T10:07:26;100627.47;;;-3.85;98.23
64835;BME280;51293;59.296;18.006;2022-12-10T10:09:58;100616.72;;;-3.83;97.94
64835;BME280;51293;59.296;18.006;2022-12-10T10:12:27;100615.47;;;-3.89;97.40
64835;BME280;51293;59.296;18.006;2022-12-10T10:14:53;100621.19;;;-3.93;97.26
64835;BME280;51293;59.296;18.006;2022-12-10T10:17:22;100618.53;;;-3.93;97.09
64835;BME280;51293;59.296;18.006;2022-12-10T10:19:52;100619.78;;;-3.98;97.70
64835;BME280;51293;59.296;18.006;2022-12-10T10:22:18;100621.88;;;-3.91;97.37
64835;BME280;51293;59.296;18.006;2022-12-10T10:24:45;100617.16;;;-3.88;97.32
64835;BME280;51293;59.296;18.006;2022-12-10T10:27:16;100619.50;;;-3.85;97.17
64835;BME280;51293;59.296;18.006;2022-12-10T10:29:48;100624.66;;;-3.83;97.43
64835;BME280;51293;59.296;18.006;2022-12-10T10:32:19;100625.63;;;-3.84;97.44
64835;BME280;51293;59.296;18.006;2022-12-10T10:34:46;100623.69;;;-3.82;97.03
64835;BME280;51293;59.296;18.006;2022-12-10T10:37:41;100617.56;;;-3.83;97.05
64835;BME280;51293;59.296;18.006;2022-12-10T10:40:06;100619.09;;;-3.80;96.63
64835;BME280;51293;59.296;18.006;2022-12-10T10:42:43;100616.03;;;-3.76;96.62
64835;BME280;51293;59.296;18.006;2022-12-10T10:45:31;100618.25;;;-3.71;96.45
64835;BME280;51293;59.296;18.006;2022-12-10T10:48:21;100614.91;;;-3.73;96.72
64835;BME280;51293;59.296;18.006;2022-12-10T10:53:50;100620.34;;;-3.75;95.91
64835;BME280;51293;59.296;18.006;2022-12-10T10:56:22;100618.66;;;-3.76;96.02
64835;BME280;51293;59.296;18.006;2022-12-10T10:59:03;100621.31;;;-3.76;96.05
64835;BME280;51293;59.296;18.006;2022-12-10T11:01:50;100623.25;;;-3.68;95.36
64835;BME280;51293;59.296;18.006;2022-12-10T11:04:18;100622.97;;;-3.65;95.39
64835;BME280;51293;59.296;18.006;2022-12-10T11:06:48;100624.25;;;-3.69;95.93
64835;BME280;51293;59.296;18.006;2022-12-10T11:09:21;100624.94;;;-3.67;95.79
64835;BME280;51293;59.296;18.006;2022-12-10T11:11:52;100622.97;;;-3.65;96.17
64835;BME280;51293;59.296;18.006;2022-12-10T11:14:26;100626.88;;;-3.59;95.84
64835;BME280;51293;59.296;18.006;2022-12-10T11:19:35;100627.28;;;-3.54;95.89
64835;BME280;51293;59.296;18.006;2022-12-10T11:22:27;100633.84;;;-3.58;95.34
64835;BME280;51293;59.296;18.006;2022-12-10T11:24:53;100637.31;;;-3.58;95.23
64835;BME280;51293;59.296;18.006;2022-12-10T11:33:14;100633.00;;;-3.59;95.98
64835;BME280;51293;59.296;18.006;2022-12-10T11:38:34;100635.09;;;-3.62;96.51
64835;BME280;51293;59.296;18.006;2022-12-10T11:52:15;100630.66;;;-3.72;97.25
64835;BME280;51293;59.296;18.006;2022-12-10T11:54:48;100628.56;;;-3.68;97.34
64835;BME280;51293;59.296;18.006;2022-12-10T12:00:05;100624.78;;;-3.75;97.17
64835;BME280;51293;59.296;18.006;2022-12-10T12:13:41;100640.13;;;-3.69;97.85
64835;BME280;51293;59.296;18.006;2022-12-10T12:16:13;100629.81;;;-3.62;97.61
64835;BME280;51293;59.296;18.006;2022-12-10T12:21:11;100634.97;;;-3.61;97.34
64835;BME280;51293;59.296;18.006;2022-12-10T12:23:45;100638.59;;;-3.62;96.92
64835;BME280;51293;59.296;18.006;2022-12-10T12:28:49;100635.25;;;-3.64;96.86
64835;BME280;51293;59.296;18.006;2022-12-10T12:31:22;100640.41;;;-3.62;96.71
64835;BME280;51293;59.296;18.006;2022-12-10T12:33:56;100650.84;;;-3.71;97.08
64835;BME280;51293;59.296;18.006;2022-12-10T12:36:27;100641.94;;;-3.70;96.80
64835;BME280;51293;59.296;18.006;2022-12-10T12:42:06;100637.50;;;-3.79;96.28
64835;BME280;51293;59.296;18.006;2022-12-10T12:44:46;100641.38;;;-3.73;96.46
64835;BME280;51293;59.296;18.006;2022-12-10T12:47:31;100635.53;;;-3.77;96.46
64835;BME280;51293;59.296;18.006;2022-12-10T12:50:02;100636.50;;;-3.78;96.85
64835;BME280;51293;59.296;18.006;2022-12-10T12:55:14;100637.63;;;-3.80;96.63
64835;BME280;51293;59.296;18.006;2022-12-10T12:57:53;100630.25;;;-3.86;96.38
64835;BME280;51293;59.296;18.006;2022-12-10T13:00:22;100634.41;;;-3.74;98.35
64835;BME280;51293;59.296;18.006;2022-12-10T13:03:41;100637.06;;;-3.84;97.09
64835;BME280;51293;59.296;18.006;2022-12-10T13:05:41;100633.03;;;-3.78;96.39
64835;BME280;51293;59.296;18.006;2022-12-10T13:08:29;100636.91;;;-3.82;96.47
64835;BME280;51293;59.296;18.006;2022-12-10T13:11:17;100648.06;;;-3.79;96.52
64835;BME280;51293;59.296;18.006;2022-12-10T13:24:19;100653.63;;;-3.91;95.96
64835;BME280;51293;59.296;18.006;2022-12-10T13:40:37;100662.84;;;-3.96;95.51
64835;BME280;51293;59.296;18.006;2022-12-10T13:48:52;100667.00;;;-4.03;95.94
64835;BME280;51293;59.296;18.006;2022-12-10T13:54:05;100666.31;;;-3.95;95.88
64835;BME280;51293;59.296;18.006;2022-12-10T14:08:13;100665.34;;;-4.04;96.40
64835;BME280;51293;59.296;18.006;2022-12-10T14:10:42;100673.41;;;-4.05;96.58
64835;BME280;51293;59.296;18.006;2022-12-10T14:13:11;100673.13;;;-4.02;95.19
64835;BME280;51293;59.296;18.006;2022-12-10T14:15:38;100672.69;;;-4.07;95.21
64835;BME280;51293;59.296;18.006;2022-12-10T14:18:13;100676.47;;;-4.10;94.64
64835;BME280;51293;59.296;18.006;2022-12-10T14:20:47;100674.09;;;-4.13;94.56
64835;BME280;51293;59.296;18.006;2022-12-10T14:23:29;100676.03;;;-4.15;94.78
64835;BME280;51293;59.296;18.006;2022-12-10T14:26:25;100680.25;;;-3.93;96.59
64835;BME280;51293;59.296;18.006;2022-12-10T14:29:00;100672.00;;;-4.00;95.36
64835;BME280;51293;59.296;18.006;2022-12-10T14:31:39;100677.88;;;-3.96;95.77
64835;BME280;51293;59.296;18.006;2022-12-10T14:34:11;100674.66;;;-3.90;95.88
64835;BME280;51293;59.296;18.006;2022-12-10T14:36:45;100673.72;;;-3.79;95.37